Time;durP1;ratioP1;P1;durP2;ratioP2;P2;SDS_P1;SDS_P2;PMS_P1;PMS_P2;Temp;Humidity;BMP_temperature;BMP_pressure;BME280_temperature;BME280_humidity;BME280_pressure;Samples;Min_cycle;Max_cycle;Signal;HPM_P1;HPM_P2
2022/07/28 00:02:09;;;;;;;35.15;12.00;;;;;;;22.74;57.40;94857.63;5083801;28;20509;-87
2022/07/28 00:04:35;;;;;;;31.27;11.55;;;;;;;23.77;59.70;95049.72;5083853;28;20140;-87
2022/07/28 00:07:01;;;;;;;27.00;12.10;;;;;;;23.47;63.84;95060.34;5084293;28;20547;-88
2022/07/28 00:09:27;;;;;;;24.85;12.52;;;;;;;23.81;63.96;95143.38;5083525;28;20107;-88
2022/07/28 00:11:52;;;;;;;24.02;12.38;;;;;;;22.95;64.15;95060.84;5083383;28;20133;-88
2022/07/28 00:14:18;;;;;;;28.50;12.05;;;;;;;21.18;65.27;94834.22;5083024;28;20059;-88
2022/07/28 00:16:43;;;;;;;18.73;11.65;;;;;;;22.69;62.60;95083.03;5084907;28;20140;-88
2022/07/28 00:19:09;;;;;;;23.35;11.38;;;;;;;22.72;64.25;95122.91;5078772;28;20042;-88
2022/07/28 00:21:34;;;;;;;16.55;10.25;;;;;;;22.46;64.68;95126.13;5074511;28;20044;-88
2022/07/28 00:23:59;;;;;;;25.83;9.82;;;;;;;22.11;65.82;95095.56;5080522;28;20035;-88
2022/07/28 00:26:25;;;;;;;14.80;10.57;;;;;;;22.40;66.31;95135.66;5083175;28;20035;-88
2022/07/28 00:28:50;;;;;;;19.35;11.35;;;;;;;22.46;67.04;95158.56;5083222;28;20394;-88
2022/07/28 00:31:16;;;;;;;18.90;10.82;;;;;;;22.12;67.26;95106.03;5094800;28;20399;-88
2022/07/28 00:33:42;;;;;;;39.42;14.73;;;;;;;21.52;71.44;95012.66;5092804;28;20046;-88
2022/07/28 00:36:08;;;;;;;26.13;12.25;;;;;;;22.07;73.26;95103.56;5083695;28;20055;-87
2022/07/28 00:38:34;;;;;;;17.50;11.15;;;;;;;21.98;73.25;95061.66;5101425;28;20165;-87
2022/07/28 00:41:09;;;;;;;31.88;12.85;;;;;;;20.77;73.88;94912.81;5084069;28;20530;-88
2022/07/28 00:43:35;;;;;;;33.80;15.98;;;;;;;21.56;78.23;95027.84;5083571;28;20123;-87
2022/07/28 00:46:01;;;;;;;21.65;13.48;;;;;;;20.20;76.42;94767.72;5083401;28;20504;-88
2022/07/28 00:48:27;;;;;;;25.90;14.38;;;;;;;20.20;76.42;94767.72;5082639;28;20100;-87
2022/07/28 00:50:52;;;;;;;19.60;13.40;;;;;;;22.11;75.99;95058.56;5100967;28;20064;-87
2022/07/28 00:53:18;;;;;;;19.75;14.32;;;;;;;21.54;76.76;94980.72;5069616;28;20038;-87
2022/07/28 00:55:43;;;;;;;22.70;12.18;;;;;;;21.94;75.83;95050.75;5079108;28;20406;-87
2022/07/28 00:58:09;;;;;;;14.80;11.40;;;;;;;21.52;72.88;95062.03;5081212;28;20059;-87
2022/07/28 01:00:35;;;;;;;17.33;11.52;;;;;;;21.52;72.88;95062.03;5082061;28;20552;-87
2022/07/28 01:03:01;;;;;;;21.80;13.02;;;;;;;21.51;75.75;95175.72;5082680;28;20040;-87
2022/07/28 01:05:41;;;;;;;21.30;11.82;;;;;;;20.44;76.73;95042.38;5082438;28;20115;-87
2022/07/28 01:08:26;;;;;;;19.73;11.68;;;;;;;21.23;76.41;95154.09;5101173;28;20502;-87
2022/07/28 01:11:00;;;;;;;20.17;13.27;;;;;;;21.22;78.53;95106.66;5082166;28;20344;-87
2022/07/28 01:13:47;;;;;;;20.15;12.60;;;;;;;22.00;76.53;95176.31;5071704;28;20047;-88
2022/07/28 01:16:13;;;;;;;18.02;12.15;;;;;;;21.94;77.22;95126.34;5082080;28;20448;-87
2022/07/28 01:18:56;;;;;;;18.20;12.10;;;;;;;22.14;76.69;95114.56;5101243;28;20490;-87
2022/07/28 01:21:27;;;;;;;19.02;12.43;;;;;;;22.20;74.76;95096.94;5082690;28;20039;-87
2022/07/28 01:24:10;;;;;;;18.90;12.70;;;;;;;22.91;73.74;95171.63;5082978;28;20036;-86
2022/07/28 01:27:00;;;;;;;17.35;12.77;;;;;;;22.18;73.70;95068.72;5082015;28;20062;-86
2022/07/28 01:29:56;;;;;;;17.85;11.38;;;;;;;22.91;74.48;95157.31;5081584;28;20667;-86
2022/07/28 01:32:24;;;;;;;15.80;12.50;;;;;;;22.88;73.61;95126.38;5081143;28;20175;-86
2022/07/28 01:34:57;;;;;;;19.88;13.27;;;;;;;23.27;75.15;95142.66;5082347;28;20035;-86
2022/07/28 01:37:29;;;;;;;15.10;12.68;;;;;;;23.32;74.18;95145.88;5082414;28;20043;-88
2022/07/28 01:40:00;;;;;;;21.02;13.20;;;;;;;23.31;73.21;95141.59;5101527;28;20035;-88
2022/07/28 01:42:36;;;;;;;17.70;12.88;;;;;;;23.39;73.14;95137.91;5082393;28;20046;-88
2022/07/28 01:45:03;;;;;;;17.75;12.02;;;;;;;23.16;73.14;95082.16;5082605;28;20480;-88
2022/07/28 01:47:30;;;;;;;16.48;12.10;;;;;;;22.37;72.78;94998.53;5081872;28;20134;-87
2022/07/28 01:50:00;;;;;;;16.98;12.48;;;;;;;21.67;72.08;94857.28;5081826;28;20553;-88
2022/07/28 01:52:27;;;;;;;17.77;12.90;;;;;;;23.58;71.83;95137.13;5083258;28;20031;-88
2022/07/28 01:54:55;;;;;;;15.05;12.23;;;;;;;23.30;72.32;95072.38;5082426;28;20034;-88
2022/07/28 01:57:24;;;;;;;17.45;13.02;;;;;;;23.53;71.13;95102.25;5081725;28;20868;-87
2022/07/28 01:59:51;;;;;;;15.20;12.43;;;;;;;22.99;70.85;95067.88;5099642;28;20036;-88
2022/07/28 02:02:19;;;;;;;22.75;13.88;;;;;;;23.23;74.12;95112.03;5082307;28;20041;-88
2022/07/28 02:04:47;;;;;;;15.90;12.65;;;;;;;22.92;72.59;95142.69;5081646;28;20096;-88
2022/07/28 02:07:13;;;;;;;22.73;13.27;;;;;;;22.44;72.56;95085.16;5080802;28;20057;-87
2022/07/28 02:09:41;;;;;;;15.20;12.00;;;;;;;22.38;74.22;95126.31;5082410;28;20113;-87
2022/07/28 02:12:08;;;;;;;17.63;12.20;;;;;;;21.68;74.43;95051.25;5101277;28;20079;-87
2022/07/28 02:14:36;;;;;;;14.70;11.65;;;;;;;22.17;74.27;95159.00;5100510;28;20101;-87
2022/07/28 02:17:09;;;;;;;18.50;11.98;;;;;;;22.43;73.54;95137.63;5082170;28;20039;-87
2022/07/28 02:19:36;;;;;;;16.17;13.15;;;;;;;20.70;73.24;94889.16;5083172;28;20095;-87
2022/07/28 02:22:03;;;;;;;16.90;13.20;;;;;;;20.51;73.99;94920.56;5081647;28;20620;-87
2022/07/28 02:24:30;;;;;;;18.27;13.43;;;;;;;21.91;74.43;95135.94;5082113;28;20133;-87
2022/07/28 02:27:04;;;;;;;18.98;13.23;;;;;;;22.20;74.24;95171.81;5080911;28;20031;-86
2022/07/28 02:29:36;;;;;;;19.92;12.93;;;;;;;22.04;75.39;95169.09;5081276;28;20468;-86
2022/07/28 02:32:37;;;;;;;15.50;13.38;;;;;;;22.26;76.34;95155.00;5081297;28;20063;-86
2022/07/28 02:35:10;;;;;;;18.55;13.50;;;;;;;22.15;74.53;95166.66;4996830;28;20450;-87
2022/07/28 02:37:39;;;;;;;14.52;11.98;;;;;;;20.92;72.88;94938.25;5082071;28;20067;-87
2022/07/28 02:40:10;;;;;;;17.63;13.30;;;;;;;21.44;74.75;94989.34;5082441;28;20031;-87
2022/07/28 02:42:39;;;;;;;16.73;13.40;;;;;;;22.48;74.25;95131.19;5100656;28;20035;-87
2022/07/28 02:45:08;;;;;;;17.90;13.00;;;;;;;22.74;73.65;95142.25;5082101;28;20039;-87
2022/07/28 02:47:42;;;;;;;18.63;13.27;;;;;;;22.87;72.99;95151.84;5082256;28;20036;-87
2022/07/28 02:50:12;;;;;;;18.30;13.23;;;;;;;22.73;74.12;95116.34;5080654;28;20028;-87
2022/07/28 02:52:41;;;;;;;18.77;13.63;;;;;;;23.22;75.10;95165.38;5080854;28;20040;-87
2022/07/28 02:55:09;;;;;;;18.17;13.98;;;;;;;22.95;73.41;95113.03;5095327;28;20050;-87
2022/07/28 02:57:38;;;;;;;20.52;12.88;;;;;;;23.02;73.99;95142.91;5070879;28;20542;-87
2022/07/28 03:00:04;;;;;;;16.80;12.23;;;;;;;21.73;73.10;94920.69;5080433;28;20028;-87
2022/07/28 03:02:32;;;;;;;18.80;13.88;;;;;;;23.13;73.77;95136.94;5100466;28;20031;-86
2022/07/28 03:05:00;;;;;;;17.50;11.90;;;;;;;23.11;71.80;95102.16;5099544;28;20031;-87
2022/07/28 03:07:31;;;;;;;20.92;13.27;;;;;;;23.62;72.29;95183.25;5081869;28;20027;-87
2022/07/28 03:09:58;;;;;;;17.05;13.52;;;;;;;22.79;72.36;95104.16;5081044;28;20096;-87
2022/07/28 03:12:25;;;;;;;14.05;12.43;;;;;;;23.40;73.38;95182.78;5080732;28;20120;-87
2022/07/28 03:14:50;;;;;;;15.20;11.93;;;;;;;21.41;71.99;94918.00;5080703;28;20501;-87
2022/07/28 03:17:16;;;;;;;16.13;12.35;;;;;;;23.35;73.08;95187.66;5084865;28;20028;-87
2022/07/28 03:19:42;;;;;;;15.00;11.90;;;;;;;23.44;73.07;95180.13;5086854;28;20148;-87
2022/07/28 03:22:08;;;;;;;13.57;11.32;;;;;;;23.47;74.27;95177.50;5088302;28;20498;-87
2022/07/28 03:24:36;;;;;;;17.08;13.52;;;;;;;21.82;74.11;94907.75;5089562;28;20092;-87
2022/07/28 03:27:19;;;;;;;16.35;13.95;;;;;;;23.01;73.80;95092.66;5087292;28;20063;-87
2022/07/28 03:29:49;;;;;;;14.93;12.02;;;;;;;23.02;74.20;95088.03;5104517;28;20066;-86
2022/07/28 03:32:19;;;;;;;15.02;13.43;;;;;;;21.22;73.96;94796.53;5085795;28;20394;-87
2022/07/28 03:34:45;;;;;;;16.85;13.68;;;;;;;23.31;73.27;95130.78;5103500;28;20046;-86
2022/07/28 03:37:17;;;;;;;19.42;13.80;;;;;;;23.00;73.56;95090.31;5084345;28;20035;-86
2022/07/28 03:39:46;;;;;;;19.55;12.77;;;;;;;23.35;72.20;95118.09;5084684;28;20050;-87
2022/07/28 03:42:16;;;;;;;21.25;13.60;;;;;;;23.47;73.44;95131.50;5083738;28;20525;-86
2022/07/28 03:44:42;;;;;;;25.83;14.25;;;;;;;23.82;71.97;95172.03;5084465;28;20135;-88
2022/07/28 03:47:07;;;;;;;17.95;13.32;;;;;;;23.25;72.89;95098.94;5084459;28;20038;-87
2022/07/28 03:49:33;;;;;;;19.83;14.25;;;;;;;23.28;72.85;95115.25;5084627;28;20039;-85
2022/07/28 03:51:58;;;;;;;18.98;15.35;;;;;;;23.42;73.04;95120.94;5102335;28;20078;-86
2022/07/28 03:54:24;;;;;;;17.02;13.73;;;;;;;23.69;73.28;95159.81;5083978;28;20411;-86
2022/07/28 03:56:49;;;;;;;19.98;14.68;;;;;;;23.11;74.08;95047.28;5084344;28;20504;-85
2022/07/28 03:59:15;;;;;;;21.95;14.95;;;;;;;23.32;74.51;95104.50;5102617;28;20070;-86
2022/07/28 04:01:40;;;;;;;26.08;16.17;;;;;;;23.21;74.01;95108.91;5083893;28;20564;-87
2022/07/28 04:04:05;;;;;;;24.08;15.02;;;;;;;21.59;73.84;94832.06;5084442;28;20040;-86
2022/07/28 04:06:31;;;;;;;17.30;14.93;;;;;;;23.38;73.80;95103.88;5083972;28;20038;-86
2022/07/28 04:08:56;;;;;;;19.73;15.35;;;;;;;23.11;74.57;95104.06;5083734;28;20142;-86
2022/07/28 04:11:22;;;;;;;24.65;16.13;;;;;;;22.50;74.55;95010.03;5102360;28;20398;-87
2022/07/28 04:13:47;;;;;;;20.63;15.30;;;;;;;22.65;72.78;95049.75;5082441;28;20196;-86
2022/07/28 04:16:13;;;;;;;19.67;15.82;;;;;;;22.98;75.58;95087.16;5083432;28;20054;-86
2022/07/28 04:18:38;;;;;;;22.13;16.55;;;;;;;23.26;74.51;95130.28;5084112;28;20402;-86
2022/07/28 04:21:04;;;;;;;23.05;16.27;;;;;;;22.69;75.20;95039.78;5083356;28;20084;-86
2022/07/28 04:23:29;;;;;;;24.92;18.85;;;;;;;22.09;75.27;94928.47;5083420;28;20219;-86
2022/07/28 04:25:55;;;;;;;26.25;17.33;;;;;;;22.79;74.71;95046.59;5101786;28;20382;-86
2022/07/28 04:28:20;;;;;;;22.35;16.13;;;;;;;23.11;73.68;95104.84;5082935;28;20092;-87
2022/07/28 04:30:46;;;;;;;21.00;15.75;;;;;;;22.96;74.44;95111.84;5082856;28;20545;-86
2022/07/28 04:33:11;;;;;;;19.80;14.70;;;;;;;22.36;74.17;95079.94;5082362;28;20050;-86
2022/07/28 04:35:37;;;;;;;17.55;14.85;;;;;;;22.01;75.53;95080.66;5083102;28;20466;-86
2022/07/28 04:38:02;;;;;;;21.05;15.23;;;;;;;21.88;75.41;95131.25;5082561;28;20171;-86
2022/07/28 04:40:28;;;;;;;23.33;16.52;;;;;;;22.20;76.26;95164.47;5082547;28;20036;-86
2022/07/28 04:42:54;;;;;;;20.67;16.17;;;;;;;21.82;76.21;95119.09;5082927;28;20039;-86
2022/07/28 04:45:20;;;;;;;21.33;15.57;;;;;;;21.75;75.83;95123.53;5082215;28;20039;-86
2022/07/28 04:47:45;;;;;;;17.67;13.90;;;;;;;21.01;74.95;95069.06;5083528;28;20039;-87
2022/07/28 04:50:14;;;;;;;18.05;14.73;;;;;;;21.08;75.79;95125.88;5082370;28;20042;-86
2022/07/28 04:52:41;;;;;;;25.50;15.27;;;;;;;21.19;77.61;95145.13;5082040;28;20035;-86
2022/07/28 04:55:07;;;;;;;20.55;16.48;;;;;;;21.73;77.92;95196.78;5081707;28;20417;-86
2022/07/28 04:57:32;;;;;;;22.30;16.73;;;;;;;19.52;76.97;94848.41;5078033;28;20036;-85
2022/07/28 04:59:59;;;;;;;18.88;15.98;;;;;;;21.56;77.37;95178.16;5078337;28;20097;-86
2022/07/28 05:02:25;;;;;;;22.73;16.17;;;;;;;21.60;76.78;95178.25;5080793;28;20039;-86
2022/07/28 05:04:50;;;;;;;22.35;17.60;;;;;;;21.35;77.60;95105.50;5079699;28;20502;-86
2022/07/28 05:07:16;;;;;;;27.20;17.60;;;;;;;20.01;77.58;94884.09;5081920;28;20711;-86
2022/07/28 05:09:41;;;;;;;25.02;18.65;;;;;;;21.33;77.94;95070.00;5072221;28;20581;-86
2022/07/28 05:12:07;;;;;;;22.00;17.42;;;;;;;21.97;76.81;95155.38;5078208;28;20036;-86
2022/07/28 05:14:33;;;;;;;23.80;17.52;;;;;;;21.67;77.69;95084.75;5061579;28;20091;-87
2022/07/28 05:16:58;;;;;;;20.50;16.67;;;;;;;21.58;76.67;95051.78;5057765;28;20189;-87
2022/07/28 05:19:23;;;;;;;22.90;15.80;;;;;;;21.24;75.22;95068.56;5051813;28;20514;-87
2022/07/28 05:21:49;;;;;;;21.98;17.15;;;;;;;21.40;76.17;95153.03;5077248;28;20039;-87
2022/07/28 05:24:15;;;;;;;22.73;17.02;;;;;;;21.21;77.25;95164.41;5080365;28;20118;-87
2022/07/28 05:26:40;;;;;;;30.75;19.23;;;;;;;21.21;79.04;95175.19;5062116;28;20079;-87
2022/07/28 05:29:06;;;;;;;25.75;18.98;;;;;;;19.72;79.57;94936.25;5061956;28;20579;-87
2022/07/28 05:31:31;;;;;;;27.98;20.50;;;;;;;20.12;79.05;94960.56;5061913;28;20128;-87
2022/07/28 05:33:57;;;;;;;21.42;18.52;;;;;;;21.51;78.93;95186.50;5068163;28;20031;-87
2022/07/28 05:36:22;;;;;;;24.83;18.48;;;;;;;21.30;78.25;95140.78;5082826;28;20087;-87
2022/07/28 05:38:48;;;;;;;22.55;18.67;;;;;;;19.84;77.67;94957.00;5099479;28;20086;-87
2022/07/28 05:41:14;;;;;;;25.20;20.42;;;;;;;21.13;78.88;95154.53;5080017;28;20050;-87
2022/07/28 05:43:39;;;;;;;24.08;17.55;;;;;;;21.59;76.95;95217.94;5081522;28;20039;-87
2022/07/28 05:46:05;;;;;;;23.83;17.63;;;;;;;20.88;77.67;95082.91;5078974;28;20027;-87
2022/07/28 05:48:30;;;;;;;19.60;16.92;;;;;;;21.53;77.28;95138.34;5079877;28;20529;-87
2022/07/28 05:50:56;;;;;;;23.00;18.42;;;;;;;21.88;77.60;95143.94;5079564;28;20039;-87
2022/07/28 05:53:22;;;;;;;22.10;17.98;;;;;;;21.43;77.18;95047.94;5081053;28;20038;-87
2022/07/28 05:55:48;;;;;;;24.30;19.10;;;;;;;20.86;76.88;94926.16;5098949;28;20036;-87
2022/07/28 05:58:14;;;;;;;22.23;18.02;;;;;;;20.61;77.08;94887.75;5081372;28;20537;-87
2022/07/28 06:00:39;;;;;;;21.73;18.20;;;;;;;21.75;75.51;95054.13;5081160;28;20536;-87
2022/07/28 06:03:06;;;;;;;20.13;16.08;;;;;;;22.13;76.39;95094.06;5099753;28;20047;-87
2022/07/28 06:05:32;;;;;;;21.23;15.88;;;;;;;22.89;74.80;95181.22;5082356;28;20036;-87
2022/07/28 06:07:58;;;;;;;22.63;16.77;;;;;;;22.72;70.70;95179.66;5080579;28;20097;-87
2022/07/28 06:10:26;;;;;;;24.83;17.80;;;;;;;22.41;75.97;95139.94;5081049;28;20031;-87
2022/07/28 06:12:54;;;;;;;22.77;17.90;;;;;;;22.68;71.82;95171.47;5098860;28;20035;-87
2022/07/28 06:15:21;;;;;;;24.05;16.95;;;;;;;21.39;71.67;94989.59;5069880;28;20128;-87
2022/07/28 06:17:51;;;;;;;21.13;17.58;;;;;;;20.91;73.52;94875.47;5077275;28;20093;-87
2022/07/28 06:20:17;;;;;;;23.67;18.65;;;;;;;23.14;74.85;95179.88;5077089;28;20067;-87
2022/07/28 06:22:48;;;;;;;22.25;17.30;;;;;;;23.11;73.25;95166.28;5083906;28;20035;-86
2022/07/28 06:25:22;;;;;;;24.77;17.92;;;;;;;22.87;73.60;95119.41;5078717;28;20035;-87
2022/07/28 06:27:49;;;;;;;19.70;15.40;;;;;;;23.25;70.02;95182.81;5087944;28;20185;-86
2022/07/28 06:30:15;;;;;;;26.38;18.02;;;;;;;23.14;72.80;95157.44;5079952;28;20558;-86
2022/07/28 06:32:41;;;;;;;23.92;17.67;;;;;;;22.62;71.03;95042.34;5080109;28;20051;-86
2022/07/28 06:35:08;;;;;;;24.33;18.00;;;;;;;23.15;72.29;95094.09;5078041;28;20136;-87
2022/07/28 06:37:34;;;;;;;26.95;18.58;;;;;;;23.54;71.57;95149.84;5088861;28;20051;-86
2022/07/28 06:40:00;;;;;;;22.67;18.77;;;;;;;23.98;72.41;95204.47;5077287;28;20473;-87
2022/07/28 06:42:25;;;;;;;28.35;18.23;;;;;;;23.42;69.80;95196.72;5080145;28;20120;-87
2022/07/28 06:44:51;;;;;;;22.80;16.35;;;;;;;22.99;70.75;95127.38;5080725;28;20263;-86
2022/07/28 06:47:17;;;;;;;19.98;16.25;;;;;;;23.42;70.48;95142.59;5098880;28;20032;-86
2022/07/28 06:49:42;;;;;;;17.88;15.98;;;;;;;22.15;68.57;94948.66;5080148;28;20529;-87
2022/07/28 06:52:08;;;;;;;26.92;19.23;;;;;;;21.55;70.22;94880.56;5083466;28;20043;-86
2022/07/28 06:54:33;;;;;;;30.58;19.88;;;;;;;23.27;72.19;95126.41;5102216;28;20031;-86
2022/07/28 06:56:59;;;;;;;31.15;20.40;;;;;;;23.85;71.64;95151.59;5083331;28;20035;-86
2022/07/28 06:59:24;;;;;;;28.20;19.27;;;;;;;21.46;68.16;94846.78;5077738;28;20055;-86
2022/07/28 07:01:50;;;;;;;25.02;19.15;;;;;;;23.30;67.01;95115.69;5085363;28;20693;-86
2022/07/28 07:04:15;;;;;;;22.75;18.83;;;;;;;23.85;68.76;95163.22;5085144;28;20035;-86
2022/07/28 07:06:42;;;;;;;22.52;17.30;;;;;;;24.03;67.25;95201.44;5103880;28;20544;-86
2022/07/28 07:09:07;;;;;;;23.88;19.73;;;;;;;22.89;68.86;95016.28;5085253;28;20280;-86
2022/07/28 07:11:32;;;;;;;28.80;22.17;;;;;;;23.06;70.09;95024.75;5081145;28;20036;-86
2022/07/28 07:13:58;;;;;;;26.77;20.25;;;;;;;22.56;68.46;94930.25;5099782;28;20028;-86
2022/07/28 07:16:23;;;;;;;24.65;19.65;;;;;;;23.63;67.67;95090.84;5082681;28;20058;-87
2022/07/28 07:18:51;;;;;;;27.05;19.77;;;;;;;24.08;68.08;95135.38;5084998;28;20277;-85
2022/07/28 07:21:20;;;;;;;24.95;19.60;;;;;;;23.73;65.88;95065.88;5102930;28;20035;-86
2022/07/28 07:23:46;;;;;;;27.73;18.75;;;;;;;24.00;65.39;95123.63;5084585;28;20590;-87
2022/07/28 07:26:12;;;;;;;24.38;16.17;;;;;;;23.45;64.11;95059.91;5085041;28;20040;-87
2022/07/28 07:28:37;;;;;;;27.20;17.65;;;;;;;22.73;64.49;94956.88;5086705;28;20108;-87
2022/07/28 07:31:03;;;;;;;24.95;18.92;;;;;;;24.22;65.93;95158.13;5085445;28;20043;-86
2022/07/28 07:33:28;;;;;;;22.77;17.55;;;;;;;24.16;63.88;95156.81;5085609;28;20032;-86
2022/07/28 07:35:54;;;;;;;24.83;18.58;;;;;;;23.97;65.56;95124.34;5083819;28;20032;-87
2022/07/28 07:38:19;;;;;;;28.55;18.92;;;;;;;24.12;66.03;95117.25;5085344;28;20060;-86
2022/07/28 07:40:45;;;;;;;26.58;19.63;;;;;;;24.40;65.79;95138.66;5086849;28;20043;-86
2022/07/28 07:43:10;;;;;;;28.02;19.25;;;;;;;23.28;63.24;94984.59;5086280;28;20036;-86
2022/07/28 07:45:36;;;;;;;27.70;18.40;;;;;;;24.65;63.07;95190.56;5085239;28;20061;-86
2022/07/28 07:48:02;;;;;;;32.85;17.15;;;;;;;24.72;61.37;95182.56;5103650;28;20084;-86
2022/07/28 07:50:29;;;;;;;23.92;18.02;;;;;;;23.55;63.14;94958.44;5085374;28;20508;-86
2022/07/28 07:52:55;;;;;;;24.70;17.98;;;;;;;25.25;63.45;95222.16;5085312;28;20484;-86
2022/07/28 07:55:20;;;;;;;25.70;17.70;;;;;;;24.68;61.56;95130.97;5085339;28;20052;-86
2022/07/28 07:57:46;;;;;;;27.73;17.48;;;;;;;25.18;59.84;95202.28;5103827;28;20039;-86
2022/07/28 08:00:12;;;;;;;20.15;16.35;;;;;;;25.27;61.95;95159.38;5084288;28;20103;-86
2022/07/28 08:02:41;;;;;;;25.75;18.27;;;;;;;23.99;61.38;95000.19;5103292;28;20118;-86
2022/07/28 08:05:08;;;;;;;28.48;17.48;;;;;;;24.75;58.43;95085.00;5084992;28;20111;-86
2022/07/28 08:07:34;;;;;;;25.10;18.10;;;;;;;25.16;60.03;95126.69;5083924;28;20040;-86
2022/07/28 08:09:59;;;;;;;26.63;18.50;;;;;;;25.16;59.19;95136.75;5083438;28;20036;-87
2022/07/28 08:12:25;;;;;;;27.40;18.65;;;;;;;25.69;57.29;95217.00;5079354;28;20051;-86
2022/07/28 08:14:50;;;;;;;28.10;19.95;;;;;;;25.27;58.13;95221.78;5093894;28;20035;-86
2022/07/28 08:17:16;;;;;;;24.15;18.17;;;;;;;25.20;59.18;95205.41;5084792;28;20657;-86
2022/07/28 08:19:41;;;;;;;25.65;18.05;;;;;;;23.87;59.05;94988.75;5084023;28;20107;-86
2022/07/28 08:22:06;;;;;;;28.33;18.02;;;;;;;25.90;59.08;95221.13;5079492;28;20031;-86
2022/07/28 08:24:32;;;;;;;23.02;19.17;;;;;;;26.03;61.97;95238.72;5080468;28;20425;-85
2022/07/28 08:26:57;;;;;;;24.08;18.13;;;;;;;25.47;60.85;95136.38;5082157;28;20031;-86
2022/07/28 08:29:23;;;;;;;25.05;18.67;;;;;;;25.83;59.06;95183.78;5082447;28;20038;-86
2022/07/28 08:31:48;;;;;;;23.70;17.75;;;;;;;25.92;57.78;95210.66;5080848;28;20417;-86
2022/07/28 08:34:14;;;;;;;22.13;16.67;;;;;;;26.15;58.11;95208.59;5082149;28;20036;-86
2022/07/28 08:36:39;;;;;;;27.92;19.27;;;;;;;24.38;56.47;94978.34;5083110;28;20584;-87
2022/07/28 08:39:05;;;;;;;21.02;16.38;;;;;;;26.34;56.93;95245.72;5095795;28;20060;-86
2022/07/28 08:41:48;;;;;;;23.40;16.70;;;;;;;26.18;57.19;95232.31;5096601;28;20110;-86
2022/07/28 08:44:19;;;;;;;20.13;16.25;;;;;;;24.47;57.87;94952.53;5102343;28;20035;-86
2022/07/28 08:46:49;;;;;;;22.58;16.70;;;;;;;26.32;57.66;95231.72;5083391;28;20517;-86
2022/07/28 08:49:16;;;;;;;24.48;17.33;;;;;;;26.47;57.79;95255.94;5082989;28;20497;-86
2022/07/28 08:51:42;;;;;;;27.45;17.38;;;;;;;26.34;57.39;95229.41;5083419;28;20034;-86
2022/07/28 08:54:09;;;;;;;27.30;17.67;;;;;;;26.18;57.07;95194.25;5083670;28;20023;-86
2022/07/28 08:56:40;;;;;;;24.13;17.95;;;;;;;26.54;55.78;95247.13;5083860;28;20054;-87
2022/07/28 08:59:06;;;;;;;26.63;17.58;;;;;;;26.19;57.27;95170.56;5102142;28;20034;-86
2022/07/28 09:01:32;;;;;;;24.20;16.60;;;;;;;26.16;56.77;95169.41;5083308;28;20555;-86
2022/07/28 09:03:59;;;;;;;26.05;18.65;;;;;;;25.67;57.24;95086.22;5082489;28;20027;-86
2022/07/28 09:06:25;;;;;;;26.15;17.65;;;;;;;26.79;54.98;95282.69;5084177;28;20071;-86
2022/07/28 09:08:51;;;;;;;29.17;18.65;;;;;;;26.67;55.30;95207.59;5081564;28;20077;-86
2022/07/28 09:11:16;;;;;;;30.25;19.17;;;;;;;26.63;55.85;95189.66;5083381;28;20031;-87
2022/07/28 09:13:43;;;;;;;21.13;17.60;;;;;;;26.80;56.01;95199.91;5082011;28;20508;-86
2022/07/28 09:16:08;;;;;;;26.02;19.55;;;;;;;26.76;54.41;95190.97;5083132;28;20554;-86
2022/07/28 09:18:35;;;;;;;33.22;19.20;;;;;;;26.96;54.29;95224.19;5079060;28;20028;-86
2022/07/28 09:21:00;;;;;;;28.52;18.70;;;;;;;26.97;52.87;95209.41;5080819;28;20043;-86
2022/07/28 09:23:41;;;;;;;25.55;17.60;;;;;;;26.08;52.75;95059.84;5080942;28;20040;-86
2022/07/28 09:26:10;;;;;;;28.35;17.98;;;;;;;27.23;52.93;95248.13;5101165;28;20031;-85
2022/07/28 09:28:50;;;;;;;24.52;18.80;;;;;;;27.13;53.04;95240.66;5081780;28;20054;-87
2022/07/28 09:31:17;;;;;;;25.05;17.60;;;;;;;27.28;53.01;95209.66;5102198;28;20595;-87
2022/07/28 09:34:12;;;;;;;29.38;17.42;;;;;;;27.42;52.84;95233.47;5084390;28;20032;-87
2022/07/28 09:36:40;;;;;;;26.33;16.40;;;;;;;27.51;52.21;95244.81;5080952;28;20053;-86
2022/07/28 09:39:06;;;;;;;23.63;18.45;;;;;;;27.12;51.63;95190.09;5084230;28;20050;-87
2022/07/28 09:41:51;;;;;;;20.75;17.00;;;;;;;26.80;50.83;95143.56;5083345;28;20456;-86
2022/07/28 09:44:18;;;;;;;23.98;17.20;;;;;;;27.00;51.80;95227.72;5083715;28;20071;-87
2022/07/28 09:46:44;;;;;;;23.23;16.83;;;;;;;27.16;53.34;95255.44;5083266;28;20062;-86
2022/07/28 09:49:10;;;;;;;24.77;16.10;;;;;;;27.14;52.77;95222.38;5101013;28;20114;-86
2022/07/28 09:51:36;;;;;;;21.17;16.65;;;;;;;26.86;52.54;95155.66;5082465;28;20107;-86
2022/07/28 09:54:09;;;;;;;20.50;16.23;;;;;;;27.66;52.34;95245.69;5082489;28;20027;-86
2022/07/28 09:56:39;;;;;;;18.05;15.15;;;;;;;27.58;50.86;95219.56;5083410;28;20097;-86
2022/07/28 09:59:06;;;;;;;21.13;16.15;;;;;;;27.84;50.90;95243.84;5082623;28;20059;-86
2022/07/28 10:01:33;;;;;;;29.58;19.27;;;;;;;27.99;50.14;95256.38;5097272;28;20096;-86
2022/07/28 10:04:00;;;;;;;23.02;17.85;;;;;;;27.70;51.59;95268.28;5083085;28;20677;-87
2022/07/28 10:06:27;;;;;;;29.20;18.45;;;;;;;27.94;50.11;95266.84;5100560;28;20031;-86
2022/07/28 10:08:54;;;;;;;28.17;17.95;;;;;;;27.21;49.98;95124.44;5082334;28;20031;-86
2022/07/28 10:11:25;;;;;;;22.52;18.48;;;;;;;28.61;48.56;95249.97;5101493;28;20328;-86
2022/07/28 10:13:51;;;;;;;21.70;16.00;;;;;;;29.08;48.32;95249.66;5083704;28;20032;-86
2022/07/28 10:16:17;;;;;;;20.48;14.55;;;;;;;29.15;45.51;95208.69;5099597;28;20558;-87
2022/07/28 10:18:43;;;;;;;22.83;13.18;;;;;;;29.74;44.00;95189.09;5081766;28;20040;-86
2022/07/28 10:21:12;;;;;;;14.98;11.73;;;;;;;29.54;42.93;95054.84;5083349;28;20080;-86
2022/07/28 10:23:38;;;;;;;16.92;12.80;;;;;;;31.26;42.31;95245.72;5084166;28;20036;-86
2022/07/28 10:26:10;;;;;;;21.48;12.00;;;;;;;31.29;38.43;95242.13;5082303;28;20050;-86
2022/07/28 10:28:39;;;;;;;16.20;12.00;;;;;;;30.45;38.62;95054.66;5082140;28;20039;-86
2022/07/28 10:31:21;;;;;;;21.20;12.75;;;;;;;31.90;39.22;95209.44;5081983;28;20512;-87
2022/07/28 10:33:51;;;;;;;16.27;11.48;;;;;;;31.82;38.17;95191.50;5100992;28;20036;-86
2022/07/28 10:36:21;;;;;;;21.15;11.60;;;;;;;32.52;38.33;95227.47;5082702;28;20024;-86
2022/07/28 10:38:48;;;;;;;16.17;9.37;;;;;;;32.73;36.70;95194.25;5101359;28;20055;-87
2022/07/28 10:41:16;;;;;;;11.75;9.50;;;;;;;32.94;36.03;95204.13;5101011;28;20742;-86
2022/07/28 10:43:43;;;;;;;14.38;9.80;;;;;;;33.02;36.01;95183.59;5101309;28;20081;-86
2022/07/28 10:46:08;;;;;;;12.70;10.30;;;;;;;32.69;36.13;95171.56;5082202;28;20048;-86
2022/07/28 10:48:37;;;;;;;12.05;10.25;;;;;;;33.08;36.19;95223.13;5082164;28;20035;-86
2022/07/28 10:51:03;;;;;;;13.88;11.05;;;;;;;32.73;37.27;95207.97;5082377;28;20503;-86
2022/07/28 10:53:34;;;;;;;12.73;9.98;;;;;;;33.20;36.48;95228.06;5082271;28;20061;-86
2022/07/28 10:56:06;;;;;;;15.48;10.70;;;;;;;33.42;34.15;95225.72;5059799;28;20043;-86
2022/07/28 10:58:46;;;;;;;14.88;10.57;;;;;;;33.35;33.48;95217.59;5062932;28;20040;-86
2022/07/28 11:01:32;;;;;;;11.95;10.00;;;;;;;33.22;32.14;95087.50;5063808;28;20039;-86
2022/07/28 11:03:58;;;;;;;16.40;10.35;;;;;;;34.33;31.79;95200.41;5065992;28;20468;-86
2022/07/28 11:06:35;;;;;;;14.38;10.20;;;;;;;34.68;32.58;95192.56;5064548;28;20035;-87
2022/07/28 11:09:30;;;;;;;10.70;9.52;;;;;;;34.80;32.76;95191.91;5062141;28;20032;-86
2022/07/28 11:11:59;;;;;;;15.25;9.30;;;;;;;34.27;31.69;95105.78;5035426;28;20048;-86
2022/07/28 11:14:36;;;;;;;11.85;8.95;;;;;;;34.70;31.57;95192.91;5064397;28;20097;-86
2022/07/28 11:17:04;;;;;;;10.70;9.60;;;;;;;34.56;31.91;95185.75;5077229;28;20140;-87
2022/07/28 11:19:45;;;;;;;14.88;9.82;;;;;;;34.37;31.78;95187.34;5062565;28;20043;-86
2022/07/28 11:22:13;;;;;;;15.93;9.52;;;;;;;34.71;30.68;95172.44;5081310;28;20047;-86